CheckWX is a tool to help pilots better visualize weather data.  It is not intended as a substitute for an official pre-flight weather briefing.

18:03:44 UTC

SBPJ TAF
Brigadeiro Lysias Rodrigues Airport
Palmas, Brazil
TAF SBPJ 170800Z 1712/1724 34005KT 7000 SCT030 TX30/1715Z TN27/1723Z PROB30 1712/1718 BKN035 BECMG 1718/1720 09005KT FEW010 PROB30 1718/1722 TS FEW015 FEW025CB RMK PDE

Feb-17@
12:00 UTC

Feb-17 @ 12:00 UTC

Feb-17@
18:00 UTC

Feb-17 @ 18:00 UTC

TAF SBPJ 170800Z 1712/1724 34005KT 7000 SCT030 TX30/1715Z TN27/1723Z

Expired

Wind
  • 340° at 5 KTS
Visibility
7,001 meters
Cloud Levels
  • Scattered at 3,000' AGL

Feb-17@
12:00 UTC

Feb-17 @ 12:00 UTC

Feb-17@
18:00 UTC

Feb-17 @ 18:00 UTC

PROB30 1712/1718 BKN035

Expired

Cloud Levels
  • Broken at 3,500' AGL

Feb-17@
18:00 UTC

Feb-17 @ 18:00 UTC

Feb-17@
22:00 UTC

Feb-17 @ 22:00 UTC

PROB30 1718/1722 TS FEW015 FEW025CB RMK PDE

Probable - 30% Likelihood

Probable - 30% Likelihood during this time.

Conditions
Thunderstorm
Cloud Levels
  • Few at 1,500' AGL
  • Few at 2,500' AGL

Feb-17@
18:00 UTC

Feb-17 @ 18:00 UTC

Feb-18@
00:00 UTC

Feb-18 @ 00:00 UTC

BECMG 1718/1720 09005KT FEW010

Becoming

BecomingConditions expected by Sun, Feb 17, 2019 @ 20:00 UTC

Wind
  • 090° at 5 KTS
Visibility
7,001 meters
Cloud Levels
  • Few at 1,000' AGL